Weather at Napier Ranch Airport

Public forecast

Using degrees Fahrenheit for public forecast. Weather courtesy of forecast.io.

Closest aviation weather report (METAR) to Napier Ranch Airport

Closest report is Roseburg Regional Airport, 6.0 nm (11.1 km) E. Retrieved 2021/02/26 05:35 UTC (0 seconds ago):

KRBG 260535Z AUTO 00000KT 10SM -RA OVC029 07/02 A3042 RMK AO2 RAB21 P0000 T00670022

Closest aviation forecast (TAF) to Napier Ranch Airport

Forecast is more than 6 hours old.

Closest forecast is Roseburg Regional Airport, 6.0 nm (11.1 km) E. Retrieved 2021/02/25 18:22 UTC (11 hours ago):

TAF KRBG 251720Z 2518/2618 19005KT P6SM -SHRA BKN025 OVC040 FM252100 31008KT P6SM VCSH SCT025 OVC040 FM260600 VRB03KT P6SM -SHRA BKN015 OVC025 FM261300 18009KT 6SM -RA BR OVC015